createdAt,value
2023-02-12T00:00:03.848Z,3.79
2023-02-12T00:01:01.850Z,3.86
2023-02-12T00:02:01.872Z,3.80
2023-02-12T00:03:01.812Z,3.83
2023-02-12T00:04:01.811Z,3.83
2023-02-12T00:05:01.821Z,3.84
2023-02-12T00:06:01.789Z,3.83
2023-02-12T00:07:01.779Z,3.87
2023-02-12T00:08:01.793Z,3.84
2023-02-12T00:09:01.771Z,3.78
2023-02-12T00:10:01.749Z,3.80
2023-02-12T00:11:01.742Z,3.93
2023-02-12T00:12:01.728Z,3.84
2023-02-12T00:13:01.703Z,3.83
2023-02-12T00:14:01.702Z,3.83
2023-02-12T00:15:01.686Z,3.78
2023-02-12T00:16:01.763Z,3.79
2023-02-12T00:17:01.661Z,3.79
2023-02-12T00:18:01.655Z,3.80
2023-02-12T00:19:01.655Z,3.76
2023-02-12T00:20:01.635Z,3.80
2023-02-12T00:21:01.610Z,3.76
2023-02-12T00:22:01.604Z,3.76
2023-02-12T00:23:01.614Z,3.79
2023-02-12T00:24:01.590Z,3.75
2023-02-12T00:25:01.566Z,3.79
2023-02-12T00:26:01.548Z,3.76
2023-02-12T00:27:01.585Z,3.76
2023-02-12T00:28:01.624Z,3.86
2023-02-12T00:29:01.542Z,3.80
2023-02-12T00:30:01.535Z,3.78
2023-02-12T00:31:01.663Z,3.90
2023-02-12T00:32:01.633Z,3.87
2023-02-12T00:33:01.483Z,3.90
2023-02-12T00:34:01.471Z,3.91
2023-02-12T00:35:01.481Z,3.97
2023-02-12T00:36:01.450Z,3.94
2023-02-12T00:37:01.452Z,3.87
2023-02-12T00:38:01.421Z,3.90
2023-02-12T00:39:01.419Z,3.84
2023-02-12T00:40:01.394Z,3.84
2023-02-12T00:41:01.412Z,3.91
2023-02-12T00:42:01.406Z,3.86
2023-02-12T00:43:01.384Z,3.88
2023-02-12T00:44:01.358Z,3.87
2023-02-12T00:45:01.348Z,3.86
2023-02-12T00:46:01.430Z,4.00
2023-02-12T00:47:01.323Z,3.88
2023-02-12T00:48:01.319Z,3.96
2023-02-12T00:49:01.307Z,3.97
2023-02-12T00:50:01.283Z,3.96
2023-02-12T00:51:01.281Z,3.94
2023-02-12T00:52:01.284Z,3.96
2023-02-12T00:53:01.258Z,3.91
2023-02-12T00:54:01.264Z,3.94
2023-02-12T00:55:01.237Z,3.94
2023-02-12T00:56:01.221Z,3.97
2023-02-12T00:57:01.215Z,3.96
2023-02-12T00:58:01.215Z,3.97
2023-02-12T00:59:01.209Z,3.94
2023-02-12T01:00:01.191Z,3.94
2023-02-12T01:01:01.188Z,3.90
2023-02-12T01:02:01.174Z,3.87
2023-02-12T01:03:01.145Z,3.80
2023-02-12T01:04:01.127Z,3.83
2023-02-12T01:05:01.158Z,3.80
2023-02-12T01:06:01.125Z,3.86
2023-02-12T01:07:01.123Z,3.90
2023-02-12T01:08:01.095Z,3.83
2023-02-12T01:09:01.082Z,3.90
2023-02-12T01:10:01.061Z,3.86
2023-02-12T01:11:01.064Z,3.86
2023-02-12T01:12:01.075Z,3.80
2023-02-12T01:13:01.056Z,3.87
2023-02-12T01:14:01.034Z,3.94
2023-02-12T01:15:01.032Z,3.94
2023-02-12T01:16:01.021Z,3.96
2023-02-12T01:17:01.009Z,3.90
2023-02-12T01:18:01.007Z,3.91
2023-02-12T01:19:00.975Z,3.91
2023-02-12T01:20:00.960Z,3.86
2023-02-12T01:21:00.946Z,3.90
2023-02-12T01:22:00.935Z,3.87
2023-02-12T01:23:00.942Z,3.97
2023-02-12T01:24:00.921Z,3.94
2023-02-12T01:25:00.900Z,3.93
2023-02-12T01:26:00.898Z,3.94
2023-02-12T01:27:00.879Z,3.90
2023-02-12T01:28:00.965Z,3.86
2023-02-12T01:29:00.861Z,3.94
2023-02-12T01:30:00.856Z,3.84
2023-02-12T01:31:01.043Z,3.87
2023-02-12T01:32:00.934Z,3.88
2023-02-12T01:33:00.811Z,3.93
2023-02-12T01:34:00.809Z,3.80
2023-02-12T01:35:00.792Z,3.83
2023-02-12T01:36:00.790Z,3.80
2023-02-12T01:37:00.792Z,3.93
2023-02-12T01:38:00.768Z,3.83
2023-02-12T01:39:00.747Z,3.84
2023-02-12T01:40:00.734Z,3.91
2023-02-12T01:41:00.723Z,3.91
2023-02-12T01:42:00.737Z,3.97
2023-02-12T01:43:00.699Z,3.97
2023-02-12T01:44:00.700Z,3.97
2023-02-12T01:45:00.694Z,3.94
2023-02-12T01:46:03.341Z,3.90
2023-02-12T01:47:00.692Z,3.90
2023-02-12T01:48:00.660Z,3.83
2023-02-12T01:49:00.634Z,3.96
2023-02-12T01:50:00.615Z,3.96
2023-02-12T01:51:00.641Z,3.84
2023-02-12T01:52:00.650Z,3.88
2023-02-12T01:53:00.598Z,3.78
2023-02-12T01:54:00.586Z,3.87
2023-02-12T01:55:00.576Z,3.93
2023-02-12T01:56:00.568Z,3.88
2023-02-12T01:57:00.564Z,3.88
2023-02-12T01:58:00.525Z,3.90
2023-02-12T01:59:00.519Z,3.86
2023-02-12T02:00:00.526Z,3.84
2023-02-12T02:01:00.524Z,3.78
2023-02-12T02:02:00.574Z,3.84
2023-02-12T02:03:00.520Z,3.75
2023-02-12T02:04:00.489Z,3.87
2023-02-12T02:05:00.463Z,3.84
2023-02-12T02:06:00.454Z,3.76
2023-02-12T02:07:00.429Z,3.80
2023-02-12T02:08:00.436Z,3.83
2023-02-12T02:09:00.408Z,3.88
2023-02-12T02:10:00.422Z,3.91
2023-02-12T02:11:00.393Z,3.87
2023-02-12T02:12:00.400Z,3.91
2023-02-12T02:13:00.361Z,3.83
2023-02-12T02:14:00.346Z,3.91
2023-02-12T02:15:00.362Z,3.86
2023-02-12T02:16:00.423Z,3.88
2023-02-12T02:17:00.315Z,3.88
2023-02-12T02:18:00.317Z,3.87
2023-02-12T02:19:00.333Z,3.86
2023-02-12T02:20:00.277Z,3.90
2023-02-12T02:21:00.270Z,3.91
2023-02-12T02:22:00.252Z,3.83
2023-02-12T02:23:00.246Z,3.86
2023-02-12T02:24:00.265Z,3.90
2023-02-12T02:25:00.225Z,3.79
2023-02-12T02:26:00.237Z,3.84
2023-02-12T02:27:00.201Z,3.79
2023-02-12T02:28:00.228Z,3.83
2023-02-12T02:29:00.183Z,3.79
2023-02-12T02:30:00.196Z,3.98
2023-02-12T02:31:00.316Z,3.94
2023-02-12T02:32:00.256Z,3.87
2023-02-12T02:33:00.132Z,3.94
2023-02-12T02:34:00.162Z,3.86
2023-02-12T02:35:00.154Z,3.98
2023-02-12T02:36:00.143Z,3.87
2023-02-12T02:37:01.369Z,4.00
2023-02-12T02:38:00.123Z,3.91
2023-02-12T02:39:00.080Z,3.97
2023-02-12T02:40:00.085Z,3.96
2023-02-12T02:41:00.050Z,4.00
2023-02-12T02:42:00.079Z,4.02
2023-02-12T02:43:00.014Z,4.00
2023-02-12T02:44:00.013Z,3.98
2023-02-12T02:45:00.017Z,3.91
2023-02-12T02:45:59.984Z,3.98
2023-02-12T02:47:00.012Z,3.97
2023-02-12T02:48:00.018Z,3.97
2023-02-12T02:48:59.945Z,3.97
2023-02-12T02:49:59.944Z,4.06
2023-02-12T02:50:59.952Z,3.98
2023-02-12T02:51:59.939Z,3.96
2023-02-12T02:52:59.903Z,4.02
2023-02-12T02:53:59.911Z,3.97
2023-02-12T02:54:59.879Z,3.96
2023-02-12T02:55:59.904Z,3.91
2023-02-12T02:56:59.875Z,4.00
2023-02-12T02:57:59.866Z,3.94
2023-02-12T02:58:59.852Z,3.98
2023-02-12T02:59:59.844Z,3.97
2023-02-12T03:00:59.897Z,3.97
2023-02-12T03:01:59.863Z,4.06
2023-02-12T03:02:59.839Z,4.00
2023-02-12T03:03:59.796Z,4.05
2023-02-12T03:04:59.796Z,4.04
2023-02-12T03:05:59.776Z,4.04
2023-02-12T03:06:59.770Z,4.02
2023-02-12T03:07:59.739Z,4.00
2023-02-12T03:08:59.720Z,3.98
2023-02-12T03:09:59.737Z,3.97
2023-02-12T03:10:59.702Z,3.97
2023-02-12T03:11:59.703Z,3.98
2023-02-12T03:12:59.676Z,3.98
2023-02-12T03:13:59.692Z,4.02
2023-02-12T03:14:59.657Z,3.93
2023-02-12T03:15:59.708Z,3.96
2023-02-12T03:16:59.681Z,3.97
2023-02-12T03:17:59.640Z,4.00
2023-02-12T03:18:59.609Z,3.93
2023-02-12T03:19:59.625Z,3.97
2023-02-12T03:20:59.595Z,3.94
2023-02-12T03:21:59.613Z,4.00
2023-02-12T03:23:00.470Z,3.94
2023-02-12T03:23:59.576Z,3.93
2023-02-12T03:24:59.557Z,3.97
2023-02-12T03:25:59.541Z,3.86
2023-02-12T03:27:02.443Z,3.83
2023-02-12T03:27:59.539Z,3.86
2023-02-12T03:28:59.519Z,3.88
2023-02-12T03:29:59.532Z,3.80
2023-02-12T03:30:59.576Z,3.87
2023-02-12T03:31:59.631Z,3.78
2023-02-12T03:32:59.465Z,3.83
2023-02-12T03:33:59.475Z,3.83
2023-02-12T03:34:59.434Z,3.86
2023-02-12T03:35:59.440Z,3.79
2023-02-12T03:37:07.083Z,3.87
2023-02-12T03:37:59.418Z,3.88
2023-02-12T03:38:59.432Z,3.87
2023-02-12T03:39:59.412Z,3.87
2023-02-12T03:40:59.426Z,3.97
2023-02-12T03:42:08.366Z,4.00
2023-02-12T03:43:07.045Z,3.97
2023-02-12T03:43:59.353Z,3.94
2023-02-12T03:44:59.327Z,3.96
2023-02-12T03:45:59.691Z,3.86
2023-02-12T03:46:59.334Z,3.87
2023-02-12T03:47:59.307Z,3.87
2023-02-12T03:48:59.283Z,3.76
2023-02-12T03:49:59.284Z,3.90
2023-02-12T03:50:59.256Z,3.86
2023-02-12T03:51:59.278Z,3.96
2023-02-12T03:52:59.266Z,3.97
2023-02-12T03:53:59.230Z,3.93
2023-02-12T03:54:59.232Z,3.88
2023-02-12T03:55:59.205Z,3.98
2023-02-12T03:56:59.210Z,4.00
2023-02-12T03:57:59.183Z,3.98
2023-02-12T03:58:59.175Z,3.96
2023-02-12T03:59:59.200Z,3.86
2023-02-12T04:00:59.166Z,3.91
2023-02-12T04:01:59.260Z,3.84
2023-02-12T04:02:59.151Z,3.76
2023-02-12T04:03:59.165Z,3.75
2023-02-12T04:04:59.133Z,3.76
2023-02-12T04:05:59.134Z,3.76
2023-02-12T04:06:59.156Z,3.79
2023-02-12T04:07:59.069Z,3.80
2023-02-12T04:08:59.048Z,3.76
2023-02-12T04:09:59.049Z,3.73
2023-02-12T04:10:59.054Z,3.76
2023-02-12T04:11:59.052Z,3.75
2023-02-12T04:12:59.008Z,3.73
2023-02-12T04:13:59.003Z,3.73
2023-02-12T04:14:58.990Z,3.79
2023-02-12T04:15:58.984Z,3.80
2023-02-12T04:16:59.074Z,3.72
2023-02-12T04:17:58.973Z,3.79
2023-02-12T04:18:58.942Z,3.78
2023-02-12T04:19:58.938Z,3.76
2023-02-12T04:20:58.942Z,3.72
2023-02-12T04:21:58.913Z,3.70
2023-02-12T04:22:58.900Z,3.73
2023-02-12T04:23:58.888Z,3.72
2023-02-12T04:24:58.873Z,3.69
2023-02-12T04:25:59.144Z,3.75
2023-02-12T04:26:58.879Z,3.76
2023-02-12T04:27:58.902Z,3.75
2023-02-12T04:28:58.859Z,3.78
2023-02-12T04:29:58.828Z,3.76
2023-02-12T04:30:58.939Z,3.79
2023-02-12T04:31:58.809Z,3.76
2023-02-12T04:32:58.808Z,3.83
2023-02-12T04:33:58.785Z,3.83
2023-02-12T04:34:58.781Z,3.79
2023-02-12T04:35:58.761Z,3.78
2023-02-12T04:36:58.745Z,3.84
2023-02-12T04:37:58.757Z,3.79
2023-02-12T04:38:58.727Z,3.78
2023-02-12T04:39:58.720Z,3.79
2023-02-12T04:40:58.728Z,3.80
2023-02-12T04:41:58.713Z,3.79
2023-02-12T04:42:58.724Z,3.78
2023-02-12T04:43:58.678Z,3.78
2023-02-12T04:44:58.668Z,3.79
2023-02-12T04:45:58.954Z,3.78
2023-02-12T04:46:58.652Z,3.79
2023-02-12T04:47:58.656Z,3.75
2023-02-12T04:48:58.731Z,3.79
2023-02-12T04:49:58.617Z,3.78
2023-02-12T04:50:58.618Z,3.76
2023-02-12T04:51:58.595Z,3.79
2023-02-12T04:52:58.601Z,3.86
2023-02-12T04:53:58.608Z,3.75
2023-02-12T04:54:58.553Z,3.76
2023-02-12T04:55:58.682Z,3.76
2023-02-12T04:56:58.525Z,3.76
2023-02-12T04:57:58.552Z,3.78
2023-02-12T04:58:58.543Z,3.79
2023-02-12T04:59:58.500Z,3.78
2023-02-12T05:00:58.555Z,3.75
2023-02-12T05:01:58.504Z,3.73
2023-02-12T05:02:58.457Z,3.79
2023-02-12T05:03:59.377Z,3.78
2023-02-12T05:04:58.487Z,3.84
2023-02-12T05:05:58.429Z,3.78
2023-02-12T05:06:58.433Z,3.80
2023-02-12T05:07:58.442Z,3.75
2023-02-12T05:08:58.399Z,3.80
2023-02-12T05:09:58.387Z,3.76
2023-02-12T05:10:58.401Z,3.75
2023-02-12T05:11:58.366Z,3.83
2023-02-12T05:12:58.346Z,3.80
2023-02-12T05:13:58.345Z,3.78
2023-02-12T05:14:58.370Z,3.79
2023-02-12T05:15:58.664Z,3.87
2023-02-12T05:16:58.305Z,3.76
2023-02-12T05:17:58.303Z,3.76
2023-02-12T05:18:58.281Z,3.80
2023-02-12T05:19:58.280Z,3.79
2023-02-12T05:20:58.274Z,3.76
2023-02-12T05:21:58.288Z,3.76
2023-02-12T05:22:58.240Z,3.87
2023-02-12T05:23:58.237Z,3.80
2023-02-12T05:24:58.230Z,3.76
2023-02-12T05:25:58.211Z,3.76
2023-02-12T05:26:58.215Z,3.79
2023-02-12T05:27:58.245Z,3.76
2023-02-12T05:28:58.171Z,3.79
2023-02-12T05:29:58.166Z,3.79
2023-02-12T05:30:58.226Z,3.75
2023-02-12T05:31:58.381Z,3.75
2023-02-12T05:32:58.127Z,3.75
2023-02-12T05:33:58.168Z,3.79
2023-02-12T05:34:58.121Z,3.75
2023-02-12T05:35:58.098Z,3.73
2023-02-12T05:36:58.081Z,3.73
2023-02-12T05:37:58.078Z,3.72
2023-02-12T05:38:58.086Z,3.78
2023-02-12T05:39:58.071Z,3.70
2023-02-12T05:40:58.038Z,3.76
2023-02-12T05:41:58.047Z,3.75
2023-02-12T05:42:58.040Z,3.75
2023-02-12T05:43:58.014Z,3.72
2023-02-12T05:44:57.990Z,3.78
2023-02-12T05:45:58.283Z,3.70
2023-02-12T05:46:57.992Z,3.75
2023-02-12T05:47:57.962Z,3.76
2023-02-12T05:48:57.970Z,3.72
2023-02-12T05:49:57.943Z,3.75
2023-02-12T05:50:57.921Z,3.68
2023-02-12T05:51:57.936Z,3.68
2023-02-12T05:52:57.913Z,3.66
2023-02-12T05:53:57.917Z,3.69
2023-02-12T05:54:57.897Z,3.72
2023-02-12T05:55:57.884Z,3.78
2023-02-12T05:56:57.857Z,3.73
2023-02-12T05:57:57.863Z,3.75
2023-02-12T05:58:57.831Z,3.73
2023-02-12T05:59:57.847Z,3.72
2023-02-12T06:00:57.813Z,3.72
2023-02-12T06:01:57.808Z,3.78
2023-02-12T06:02:57.917Z,3.76
2023-02-12T06:03:57.825Z,3.75
2023-02-12T06:04:57.788Z,3.73
2023-02-12T06:05:58.094Z,3.75
2023-02-12T06:06:57.742Z,3.66
2023-02-12T06:07:57.741Z,3.73
2023-02-12T06:08:57.731Z,3.73
2023-02-12T06:09:57.772Z,3.68
2023-02-12T06:10:57.698Z,3.66
2023-02-12T06:11:57.701Z,3.72
2023-02-12T06:12:57.700Z,3.72
2023-02-12T06:13:57.667Z,3.73
2023-02-12T06:14:57.675Z,3.69
2023-02-12T06:15:58.190Z,3.69
2023-02-12T06:16:57.632Z,3.60
2023-02-12T06:17:57.629Z,3.65
2023-02-12T06:18:57.657Z,3.61
2023-02-12T06:19:57.653Z,3.65
2023-02-12T06:20:57.590Z,3.65
2023-02-12T06:21:57.589Z,3.75
2023-02-12T06:22:57.564Z,3.68
2023-02-12T06:23:57.565Z,3.72
2023-02-12T06:24:57.562Z,3.65
2023-02-12T06:25:57.974Z,3.62
2023-02-12T06:26:57.512Z,3.70
2023-02-12T06:27:57.614Z,3.69
2023-02-12T06:28:57.494Z,3.68
2023-02-12T06:29:57.518Z,3.69
2023-02-12T06:30:57.582Z,3.68
2023-02-12T06:31:57.612Z,3.72
2023-02-12T06:32:57.453Z,3.73
2023-02-12T06:33:57.478Z,3.65
2023-02-12T06:34:57.457Z,3.69
2023-02-12T06:35:57.757Z,3.72
2023-02-12T06:36:57.425Z,3.69
2023-02-12T06:37:57.406Z,3.73
2023-02-12T06:38:57.405Z,3.66
2023-02-12T06:39:57.397Z,3.66
2023-02-12T06:40:57.527Z,3.70
2023-02-12T06:41:57.390Z,3.70
2023-02-12T06:42:57.346Z,3.62
2023-02-12T06:43:57.332Z,3.73
2023-02-12T06:44:59.872Z,3.62
2023-02-12T06:45:57.617Z,3.60
2023-02-12T06:46:57.475Z,3.72
2023-02-12T06:47:57.295Z,3.61
2023-02-12T06:48:57.281Z,3.61
2023-02-12T06:49:57.264Z,3.65
2023-02-12T06:50:57.309Z,3.57
2023-02-12T06:51:57.252Z,3.61
2023-02-12T06:52:57.237Z,3.65
2023-02-12T06:53:57.238Z,3.58
2023-02-12T06:54:57.216Z,3.62
2023-02-12T06:55:57.501Z,3.70
2023-02-12T06:56:57.213Z,3.66
2023-02-12T06:57:57.186Z,3.69
2023-02-12T06:58:57.169Z,3.66
2023-02-12T06:59:57.179Z,3.68
2023-02-12T07:00:57.366Z,3.73
2023-02-12T07:01:57.132Z,3.72
2023-02-12T07:02:57.123Z,3.69
2023-02-12T07:03:57.215Z,3.72
2023-02-12T07:04:57.103Z,3.80
2023-02-12T07:05:57.493Z,3.76
2023-02-12T07:06:57.123Z,3.76
2023-02-12T07:07:57.080Z,3.83
2023-02-12T07:08:57.057Z,3.80
2023-02-12T07:09:57.079Z,3.87
2023-02-12T07:10:57.033Z,3.90
2023-02-12T07:11:57.044Z,3.97
2023-02-12T07:12:57.018Z,3.96
2023-02-12T07:13:56.998Z,4.00
2023-02-12T07:14:56.986Z,4.02
2023-02-12T07:15:57.323Z,4.02
2023-02-12T07:16:57.537Z,4.00
2023-02-12T07:17:56.988Z,3.91
2023-02-12T07:18:56.953Z,3.93
2023-02-12T07:19:56.926Z,4.02
2023-02-12T07:20:56.927Z,4.02
2023-02-12T07:21:56.911Z,3.96
2023-02-12T07:22:56.935Z,4.02
2023-02-12T07:23:56.926Z,4.02
2023-02-12T07:24:56.874Z,4.00
2023-02-12T07:25:57.269Z,3.96
2023-02-12T07:26:56.884Z,4.05
2023-02-12T07:27:56.853Z,3.97
2023-02-12T07:28:56.853Z,3.96
2023-02-12T07:29:56.816Z,4.05
2023-02-12T07:30:56.883Z,4.00
2023-02-12T07:31:56.879Z,4.06
2023-02-12T07:32:56.806Z,4.04
2023-02-12T07:33:56.806Z,3.98
2023-02-12T07:34:56.765Z,3.97
2023-02-12T07:35:57.176Z,3.97
2023-02-12T07:36:56.740Z,3.94
2023-02-12T07:37:56.726Z,3.94
2023-02-12T07:38:56.780Z,4.09
2023-02-12T07:39:56.712Z,4.02
2023-02-12T07:40:56.720Z,4.00
2023-02-12T07:41:56.719Z,4.02
2023-02-12T07:42:56.681Z,4.12
2023-02-12T07:43:56.667Z,4.08
2023-02-12T07:44:56.683Z,4.00
2023-02-12T07:45:57.040Z,4.08
2023-02-12T07:46:56.697Z,4.02
2023-02-12T07:47:56.611Z,4.00
2023-02-12T07:48:56.630Z,4.11
2023-02-12T07:49:56.589Z,4.08
2023-02-12T07:50:56.594Z,4.12
2023-02-12T07:51:56.584Z,4.09
2023-02-12T07:52:56.564Z,4.04
2023-02-12T07:53:56.569Z,4.00
2023-02-12T07:54:56.575Z,4.02
2023-02-12T07:55:56.983Z,4.00
2023-02-12T07:56:56.523Z,4.00
2023-02-12T07:57:56.522Z,4.05
2023-02-12T07:58:56.527Z,4.02
2023-02-12T07:59:56.483Z,4.09
2023-02-12T08:00:56.475Z,4.11
2023-02-12T08:01:56.592Z,4.12
2023-02-12T08:02:56.455Z,4.12
2023-02-12T08:03:56.485Z,4.08
2023-02-12T08:04:57.001Z,4.18
2023-02-12T08:05:56.898Z,4.14
2023-02-12T08:06:56.432Z,4.20
2023-02-12T08:07:56.398Z,4.18
2023-02-12T08:08:56.397Z,4.20
2023-02-12T08:09:56.446Z,4.36
2023-02-12T08:10:56.397Z,4.30
2023-02-12T08:11:56.352Z,4.36
2023-02-12T08:12:56.346Z,4.36
2023-02-12T08:13:56.347Z,4.34
2023-02-12T08:14:56.334Z,4.37
2023-02-12T08:15:56.710Z,4.37
2023-02-12T08:16:56.377Z,4.34
2023-02-12T08:17:56.297Z,4.34
2023-02-12T08:19:02.385Z,4.36
2023-02-12T08:19:57.367Z,4.42
2023-02-12T08:20:56.255Z,4.41
2023-02-12T08:21:59.009Z,4.40
2023-02-12T08:22:56.243Z,4.37
2023-02-12T08:23:56.216Z,4.41
2023-02-12T08:24:56.220Z,4.40
2023-02-12T08:25:56.525Z,4.41
2023-02-12T08:26:56.376Z,4.47
2023-02-12T08:27:56.230Z,4.42
2023-02-12T08:28:56.323Z,4.41
2023-02-12T08:29:56.227Z,4.33
2023-02-12T08:30:56.308Z,4.36
2023-02-12T08:31:56.187Z,4.37
2023-02-12T08:32:56.122Z,4.30
2023-02-12T08:33:56.123Z,4.36
2023-02-12T08:34:56.114Z,4.33
2023-02-12T08:35:59.371Z,4.29
2023-02-12T08:36:56.075Z,4.30
2023-02-12T08:37:56.081Z,4.27
2023-02-12T08:38:56.081Z,4.15
2023-02-12T08:39:56.061Z,4.29
2023-02-12T08:40:56.050Z,4.29
2023-02-12T08:41:56.019Z,4.26
2023-02-12T08:42:56.039Z,4.34
2023-02-12T08:43:56.017Z,4.29
2023-02-12T08:44:56.000Z,4.23
2023-02-12T08:45:56.401Z,4.33
2023-02-12T08:46:55.962Z,4.36
2023-02-12T08:47:55.946Z,4.41
2023-02-12T08:48:55.960Z,4.42
2023-02-12T08:49:55.950Z,4.48
2023-02-12T08:50:55.929Z,4.47
2023-02-12T08:51:55.943Z,4.52
2023-02-12T08:52:55.917Z,4.48
2023-02-12T08:53:55.880Z,4.52
2023-02-12T08:54:55.873Z,4.50
2023-02-12T08:55:56.162Z,4.44
2023-02-12T08:56:55.872Z,4.50
2023-02-12T08:57:55.842Z,4.51
2023-02-12T08:58:55.875Z,4.52
2023-02-12T08:59:55.806Z,4.47
2023-02-12T09:00:55.835Z,4.45
2023-02-12T09:01:55.809Z,4.45
2023-02-12T09:02:55.827Z,4.51
2023-02-12T09:03:55.762Z,4.52
2023-02-12T09:04:55.756Z,4.50
2023-02-12T09:05:56.244Z,4.52
2023-02-12T09:06:55.765Z,4.50
2023-02-12T09:07:55.726Z,4.32
2023-02-12T09:08:55.759Z,4.33
2023-02-12T09:09:55.694Z,4.48
2023-02-12T09:10:55.698Z,4.41
2023-02-12T09:11:55.695Z,4.45
2023-02-12T09:12:55.672Z,4.48
2023-02-12T09:13:55.648Z,4.51
2023-02-12T09:14:55.667Z,4.48
2023-02-12T09:15:56.010Z,4.51
2023-02-12T09:16:55.700Z,4.47
2023-02-12T09:17:55.609Z,4.55
2023-02-12T09:18:55.617Z,4.58
2023-02-12T09:19:55.602Z,4.54
2023-02-12T09:20:55.576Z,4.65
2023-02-12T09:21:56.479Z,4.67
2023-02-12T09:22:55.578Z,4.69
2023-02-12T09:23:55.540Z,4.69
2023-02-12T09:24:55.547Z,4.77
2023-02-12T09:25:55.803Z,4.77
2023-02-12T09:26:55.539Z,4.69
2023-02-12T09:27:55.513Z,4.84
2023-02-12T09:28:55.517Z,4.75
2023-02-12T09:29:55.471Z,4.84
2023-02-12T09:30:55.638Z,4.85
2023-02-12T09:31:55.618Z,4.89
2023-02-12T09:32:55.456Z,4.94
2023-02-12T09:33:55.535Z,4.84
2023-02-12T09:34:55.440Z,4.80
2023-02-12T09:35:55.739Z,4.84
2023-02-12T09:36:55.400Z,4.86
2023-02-12T09:37:55.377Z,4.86
2023-02-12T09:38:55.397Z,4.86
2023-02-12T09:39:55.364Z,4.89
2023-02-12T09:40:55.363Z,4.92
2023-02-12T09:41:55.378Z,4.96
2023-02-12T09:42:55.359Z,4.96
2023-02-12T09:43:55.326Z,5.00
2023-02-12T09:44:55.337Z,5.04
2023-02-12T09:45:55.777Z,4.96
2023-02-12T09:46:55.328Z,5.04
2023-02-12T09:47:55.334Z,5.04
2023-02-12T09:48:57.312Z,4.96
2023-02-12T09:49:55.295Z,5.02
2023-02-12T09:50:55.244Z,5.09
2023-02-12T09:51:55.241Z,5.09
2023-02-12T09:52:55.288Z,5.09
2023-02-12T09:53:55.237Z,5.03
2023-02-12T09:54:56.489Z,5.00
2023-02-12T09:55:55.498Z,5.09
2023-02-12T09:56:55.195Z,5.06
2023-02-12T09:57:55.152Z,5.09
2023-02-12T09:58:55.174Z,5.07
2023-02-12T09:59:55.160Z,5.06
2023-02-12T10:00:55.130Z,4.99
2023-02-12T10:01:55.112Z,5.09
2023-02-12T10:02:55.152Z,5.00
2023-02-12T10:03:55.417Z,5.07
2023-02-12T10:05:01.496Z,5.03
2023-02-12T10:05:56.369Z,5.03
2023-02-12T10:06:55.067Z,5.04
2023-02-12T10:07:55.089Z,5.12
2023-02-12T10:08:55.041Z,5.07
2023-02-12T10:09:55.041Z,5.10
2023-02-12T10:10:55.040Z,5.12
2023-02-12T10:11:55.022Z,5.03
2023-02-12T10:12:54.996Z,5.03
2023-02-12T10:13:55.000Z,5.09
2023-02-12T10:14:54.967Z,5.07
2023-02-12T10:15:55.511Z,5.03
2023-02-12T10:16:54.951Z,5.04
2023-02-12T10:17:54.961Z,5.07
2023-02-12T10:18:54.984Z,5.03
2023-02-12T10:19:54.913Z,5.02
2023-02-12T10:20:55.251Z,5.04
2023-02-12T10:21:54.905Z,5.00
2023-02-12T10:22:57.108Z,5.15
2023-02-12T10:23:54.886Z,5.09
2023-02-12T10:24:54.884Z,5.15
2023-02-12T10:25:54.871Z,5.12
2023-02-12T10:26:54.832Z,5.20
2023-02-12T10:27:54.863Z,5.20
2023-02-12T10:28:54.815Z,5.24
2023-02-12T10:29:54.793Z,5.31
2023-02-12T10:30:54.901Z,5.28
2023-02-12T10:31:54.975Z,5.30
2023-02-12T10:32:54.785Z,5.27
2023-02-12T10:33:54.768Z,5.22
2023-02-12T10:34:54.761Z,5.38
2023-02-12T10:35:55.062Z,5.27
2023-02-12T10:36:54.734Z,5.30
2023-02-12T10:37:54.706Z,5.35
2023-02-12T10:38:54.737Z,5.33
2023-02-12T10:39:54.706Z,5.27
2023-02-12T10:40:54.678Z,5.28
2023-02-12T10:41:54.653Z,5.27
2023-02-12T10:42:54.655Z,5.27
2023-02-12T10:43:54.641Z,5.25
2023-02-12T10:44:54.649Z,5.39
2023-02-12T10:45:54.946Z,5.33
2023-02-12T10:46:54.610Z,5.46
2023-02-12T10:47:54.601Z,5.36
2023-02-12T10:48:54.576Z,5.38
2023-02-12T10:49:54.579Z,5.45
2023-02-12T10:50:54.598Z,5.36
2023-02-12T10:51:54.554Z,5.39
2023-02-12T10:52:54.550Z,5.36
2023-02-12T10:54:02.935Z,5.33
2023-02-12T10:54:54.687Z,5.33
2023-02-12T10:55:54.970Z,5.31
2023-02-12T10:56:54.734Z,5.30
2023-02-12T10:58:04.655Z,5.48
2023-02-12T10:58:54.657Z,5.42
2023-02-12T10:59:54.617Z,5.40
2023-02-12T11:00:54.486Z,5.46
2023-02-12T11:01:54.609Z,5.46
2023-02-12T11:02:54.448Z,5.48
2023-02-12T11:03:54.432Z,5.45
2023-02-12T11:04:54.594Z,5.46
2023-02-12T11:05:54.887Z,5.46
2023-02-12T11:06:54.388Z,5.51
2023-02-12T11:07:54.387Z,5.40
2023-02-12T11:08:54.372Z,5.56
2023-02-12T11:09:54.336Z,5.61
2023-02-12T11:10:54.322Z,5.61
2023-02-12T11:11:54.344Z,5.61
2023-02-12T11:12:54.319Z,5.67
2023-02-12T11:13:54.311Z,5.68
2023-02-12T11:14:54.276Z,5.67
2023-02-12T11:15:54.320Z,5.65
2023-02-12T11:16:54.270Z,5.68
2023-02-12T11:17:54.263Z,5.72
2023-02-12T11:18:54.263Z,5.65
2023-02-12T11:19:54.250Z,5.61
2023-02-12T11:20:54.209Z,5.58
2023-02-12T11:21:54.219Z,5.57
2023-02-12T11:22:54.205Z,5.53
2023-02-12T11:23:54.208Z,5.45
2023-02-12T11:24:54.187Z,5.45
2023-02-12T11:25:54.674Z,5.40
2023-02-12T11:26:54.135Z,5.48
2023-02-12T11:27:55.431Z,5.49
2023-02-12T11:28:54.236Z,5.54
2023-02-12T11:29:54.142Z,5.53
2023-02-12T11:30:54.169Z,5.54
2023-02-12T11:31:54.145Z,5.49
2023-02-12T11:32:54.074Z,5.51
2023-02-12T11:33:54.064Z,5.49
2023-02-12T11:34:54.060Z,5.57
2023-02-12T11:35:54.067Z,5.48
2023-02-12T11:36:54.038Z,5.64
2023-02-12T11:37:54.022Z,5.61
2023-02-12T11:38:54.040Z,5.64
2023-02-12T11:39:54.006Z,5.67
2023-02-12T11:40:53.977Z,5.74
2023-02-12T11:41:54.000Z,5.65
2023-02-12T11:42:53.977Z,5.83
2023-02-12T11:43:53.962Z,5.71
2023-02-12T11:44:53.936Z,5.76
2023-02-12T11:45:53.931Z,5.68
2023-02-12T11:46:53.964Z,5.61
2023-02-12T11:47:53.925Z,5.61
2023-02-12T11:49:02.671Z,5.58
2023-02-12T11:49:53.920Z,5.65
2023-02-12T11:50:53.894Z,5.53
2023-02-12T11:51:53.907Z,5.46
2023-02-12T11:52:53.846Z,5.48
2023-02-12T11:53:53.882Z,5.49
2023-02-12T11:54:53.857Z,5.49
2023-02-12T11:55:53.845Z,5.54
2023-02-12T11:56:53.820Z,5.49
2023-02-12T11:57:53.800Z,5.54
2023-02-12T11:58:53.798Z,5.61
2023-02-12T11:59:53.799Z,5.56
2023-02-12T12:00:53.772Z,5.56
2023-02-12T12:01:53.768Z,5.61
2023-02-12T12:02:53.769Z,5.61
2023-02-12T12:03:53.749Z,5.48
2023-02-12T12:04:53.736Z,5.46
2023-02-12T12:05:54.022Z,5.49
2023-02-12T12:06:53.714Z,5.42
2023-02-12T12:07:53.694Z,5.40
2023-02-12T12:08:53.678Z,5.38
2023-02-12T12:09:53.694Z,5.46
2023-02-12T12:10:53.697Z,5.48
2023-02-12T12:11:53.648Z,5.45
2023-02-12T12:12:53.634Z,5.46
2023-02-12T12:13:53.612Z,5.42
2023-02-12T12:14:53.619Z,5.48
2023-02-12T12:15:53.866Z,5.42
2023-02-12T12:16:53.589Z,5.49
2023-02-12T12:17:53.644Z,5.51
2023-02-12T12:18:53.557Z,5.57
2023-02-12T12:19:53.580Z,5.68
2023-02-12T12:20:53.636Z,5.72
2023-02-12T12:21:53.578Z,5.61
2023-02-12T12:22:53.518Z,5.72
2023-02-12T12:23:53.501Z,5.75
2023-02-12T12:24:53.568Z,5.79
2023-02-12T12:25:53.639Z,5.74
2023-02-12T12:26:53.480Z,5.85
2023-02-12T12:27:53.474Z,5.85
2023-02-12T12:28:53.437Z,5.83
2023-02-12T12:29:53.450Z,5.78
2023-02-12T12:30:53.487Z,5.79
2023-02-12T12:31:53.484Z,5.78
2023-02-12T12:32:53.391Z,5.81
2023-02-12T12:33:53.391Z,5.72
2023-02-12T12:34:53.370Z,5.85
2023-02-12T12:35:53.500Z,5.74
2023-02-12T12:36:53.397Z,5.67
2023-02-12T12:37:53.347Z,5.78
2023-02-12T12:38:53.361Z,5.67
2023-02-12T12:39:53.345Z,5.71
2023-02-12T12:40:53.318Z,5.71
2023-02-12T12:41:53.293Z,5.76
2023-02-12T12:42:53.315Z,5.76
2023-02-12T12:43:53.270Z,5.75
2023-02-12T12:44:53.297Z,5.82
2023-02-12T12:45:53.318Z,5.79
2023-02-12T12:46:53.231Z,5.83
2023-02-12T12:47:53.244Z,5.81
2023-02-12T12:48:53.208Z,5.76
2023-02-12T12:49:53.233Z,5.82
2023-02-12T12:50:53.260Z,5.78
2023-02-12T12:51:53.207Z,5.83
2023-02-12T12:52:53.180Z,5.85
2023-02-12T12:53:53.170Z,5.82
2023-02-12T12:54:53.141Z,5.82
2023-02-12T12:55:53.137Z,5.76
2023-02-12T12:56:53.148Z,5.79
2023-02-12T12:57:53.144Z,5.74
2023-02-12T12:58:53.130Z,5.68
2023-02-12T12:59:53.096Z,5.68
2023-02-12T13:00:53.121Z,5.74
2023-02-12T13:01:53.093Z,5.60
2023-02-12T13:02:53.070Z,5.68
2023-02-12T13:03:53.076Z,5.68
2023-02-12T13:04:56.027Z,5.65
2023-02-12T13:05:53.048Z,5.60
2023-02-12T13:06:53.014Z,5.60
2023-02-12T13:07:53.032Z,5.60
2023-02-12T13:08:53.026Z,5.58
2023-02-12T13:09:52.997Z,5.54
2023-02-12T13:10:52.965Z,5.51
2023-02-12T13:11:52.957Z,5.53
2023-02-12T13:12:52.977Z,5.40
2023-02-12T13:13:52.958Z,5.42
2023-02-12T13:14:52.968Z,5.45
2023-02-12T13:15:52.912Z,5.43
2023-02-12T13:16:52.938Z,5.49
2023-02-12T13:17:52.921Z,5.48